createdAt,value
2019-04-16T00:01:33.320Z,99086.95
2019-04-16T00:04:27.227Z,99083.08
2019-04-16T00:07:14.001Z,99080.89
2019-04-16T00:10:00.967Z,99076.92
2019-04-16T00:12:58.234Z,99076.03
2019-04-16T00:15:27.435Z,99068.67
2019-04-16T00:17:56.498Z,99066.04
2019-04-16T00:20:25.583Z,99070.54
2019-04-16T00:23:00.385Z,99060.88
2019-04-16T00:25:30.736Z,99058.73
2019-04-16T00:28:01.901Z,99053.67
2019-04-16T00:30:35.449Z,99050.41
2019-04-16T00:33:01.881Z,99050.41
2019-04-16T00:35:32.385Z,99051.03
2019-04-16T00:38:01.488Z,99045.31
2019-04-16T00:40:30.633Z,99043.23
2019-04-16T00:42:59.656Z,99042.28
2019-04-16T00:45:28.831Z,99038.66
2019-04-16T00:47:57.971Z,99037.80
2019-04-16T00:50:27.048Z,99031.91
2019-04-16T00:52:56.077Z,99026.66
2019-04-16T00:55:25.186Z,99027.05
2019-04-16T00:57:54.269Z,99027.34
2019-04-16T01:00:23.355Z,99022.50
2019-04-16T01:02:53.568Z,99025.82
2019-04-16T01:05:22.861Z,99030.20
2019-04-16T01:07:54.247Z,99027.77
2019-04-16T01:10:23.403Z,99034.62
2019-04-16T01:12:52.770Z,99038.66
2019-04-16T01:15:21.829Z,99036.98
2019-04-16T01:17:51.026Z,99029.38
2019-04-16T01:20:20.111Z,99026.72
2019-04-16T01:22:49.321Z,99027.34
2019-04-16T01:25:20.332Z,99038.89
2019-04-16T01:27:53.693Z,99038.34
2019-04-16T01:30:36.626Z,99040.04
2019-04-16T01:33:43.447Z,99042.75
2019-04-16T01:36:31.167Z,99038.58
2019-04-16T01:39:16.269Z,99038.22
2019-04-16T01:41:32.945Z,99033.78
2019-04-16T01:44:03.108Z,99038.41
2019-04-16T01:46:32.847Z,99044.45
2019-04-16T01:49:02.659Z,99044.95
2019-04-16T01:51:33.782Z,99038.30
2019-04-16T01:54:02.816Z,99043.20
2019-04-16T01:56:31.959Z,99040.28
2019-04-16T01:59:04.552Z,99041.75
2019-04-16T02:01:35.946Z,98974.11
2019-04-16T02:04:05.168Z,99041.56
2019-04-16T02:06:34.363Z,99045.16
2019-04-16T02:09:04.805Z,99048.59
2019-04-16T02:11:33.944Z,99043.78
2019-04-16T02:14:03.005Z,99035.13
2019-04-16T02:16:32.076Z,99047.14
2019-04-16T02:19:02.315Z,99046.51
2019-04-16T02:21:31.650Z,99042.20
2019-04-16T02:24:01.604Z,99044.55
2019-04-16T02:26:30.714Z,99044.38
2019-04-16T02:28:59.773Z,99036.36
2019-04-16T02:31:28.811Z,99046.69
2019-04-16T02:33:57.944Z,99048.04
2019-04-16T02:36:27.066Z,99044.28
2019-04-16T02:38:58.207Z,99043.44
2019-04-16T02:41:27.356Z,99044.75
2019-04-16T02:43:56.469Z,99047.34
2019-04-16T02:46:30.831Z,99039.64
2019-04-16T02:48:56.448Z,99047.62
2019-04-16T02:51:31.083Z,99039.80
2019-04-16T02:54:34.650Z,99039.22
2019-04-16T02:57:25.742Z,99041.97
2019-04-16T02:59:52.486Z,99047.02
2019-04-16T03:02:59.050Z,99045.79
2019-04-16T03:05:33.031Z,99040.66
2019-04-16T03:08:05.016Z,99042.37
2019-04-16T03:10:32.980Z,99042.55
2019-04-16T03:13:02.077Z,99042.43
2019-04-16T03:15:48.900Z,99037.55
2019-04-16T03:18:22.994Z,99039.59
2019-04-16T03:20:52.465Z,99035.10
2019-04-16T03:23:22.980Z,99039.58
2019-04-16T03:25:52.377Z,99043.97
2019-04-16T03:28:23.605Z,99047.98
2019-04-16T03:30:56.876Z,99053.17
2019-04-16T03:33:25.983Z,99049.81
2019-04-16T03:35:57.633Z,99053.73
2019-04-16T03:38:26.357Z,99044.82
2019-04-16T03:40:56.742Z,99043.23
2019-04-16T03:43:25.847Z,99037.83
2019-04-16T03:45:56.391Z,99040.00
2019-04-16T03:48:25.437Z,99041.86
2019-04-16T03:50:54.490Z,99041.67
2019-04-16T03:53:23.537Z,99042.26
2019-04-16T03:55:54.588Z,99038.31
2019-04-16T03:58:23.495Z,99035.34
2019-04-16T04:00:53.553Z,99036.62
2019-04-16T04:03:25.805Z,99038.42
2019-04-16T04:05:56.852Z,99041.33
2019-04-16T04:08:26.262Z,99039.34
2019-04-16T04:10:55.405Z,99043.67
2019-04-16T04:13:24.489Z,99045.89
2019-04-16T04:15:55.179Z,99051.55
2019-04-16T04:18:24.454Z,99049.46
2019-04-16T04:20:53.543Z,99044.30
2019-04-16T04:23:25.507Z,99042.70
2019-04-16T04:25:53.468Z,99042.72
2019-04-16T04:28:22.553Z,99048.05
2019-04-16T04:30:51.688Z,99047.23
2019-04-16T04:33:40.851Z,99052.36
2019-04-16T04:36:08.318Z,99050.13
2019-04-16T04:38:38.424Z,99049.75
2019-04-16T04:41:08.154Z,99048.27
2019-04-16T04:43:40.047Z,99052.29
2019-04-16T04:46:12.895Z,99058.55
2019-04-16T04:48:40.017Z,99063.15
2019-04-16T04:51:09.190Z,99070.28
2019-04-16T04:53:38.277Z,99069.42
2019-04-16T04:56:07.338Z,99071.67
2019-04-16T04:58:36.380Z,99066.61
2019-04-16T05:01:05.474Z,99072.70
2019-04-16T05:04:07.189Z,99076.09
2019-04-16T05:06:37.679Z,99080.69
2019-04-16T05:09:07.692Z,99075.89
2019-04-16T05:11:37.170Z,99085.53
2019-04-16T05:14:06.210Z,99086.78
2019-04-16T05:16:35.384Z,99085.70
2019-04-16T05:19:04.490Z,99087.73
2019-04-16T05:21:33.612Z,99086.42
2019-04-16T05:24:02.654Z,99094.72
2019-04-16T05:26:33.569Z,99090.25
2019-04-16T05:29:17.389Z,99092.55
2019-04-16T05:31:45.385Z,99093.25
2019-04-16T05:34:17.728Z,99089.04
2019-04-16T05:36:47.776Z,99085.00
2019-04-16T05:39:16.140Z,99088.17
2019-04-16T05:41:52.953Z,99084.73
2019-04-16T05:44:21.333Z,99086.14
2019-04-16T05:46:50.531Z,99082.64
2019-04-16T05:49:24.626Z,99086.28
2019-04-16T05:51:51.557Z,99080.15
2019-04-16T05:54:44.504Z,99076.55
2019-04-16T05:57:18.514Z,99071.03
2019-04-16T05:59:47.571Z,99073.46
2019-04-16T06:02:24.512Z,99085.59
2019-04-16T06:04:55.863Z,99080.02
2019-04-16T06:07:24.427Z,99081.78
2019-04-16T06:09:53.634Z,99083.12
2019-04-16T06:12:24.657Z,99087.73
2019-04-16T06:14:58.903Z,99087.61
2019-04-16T06:17:45.649Z,99096.13
2019-04-16T06:20:26.899Z,99101.47
2019-04-16T06:23:13.541Z,99097.41
2019-04-16T06:25:52.971Z,99097.19
2019-04-16T06:28:44.016Z,99090.61
2019-04-16T06:31:26.956Z,99092.18
2019-04-16T06:34:16.679Z,99088.05
2019-04-16T06:36:53.054Z,99086.98
2019-04-16T06:40:01.063Z,99095.69
2019-04-16T06:42:46.819Z,99089.36
2019-04-16T06:45:36.551Z,99091.27
2019-04-16T06:48:05.900Z,99090.09
2019-04-16T06:50:59.947Z,99090.27
2019-04-16T06:53:43.608Z,99081.34
2019-04-16T06:56:40.403Z,99087.13
2019-04-16T06:59:26.603Z,99083.64
2019-04-16T07:02:14.120Z,99083.39
2019-04-16T07:05:01.967Z,99085.78
2019-04-16T07:07:46.066Z,99074.09
2019-04-16T07:10:16.188Z,99078.52
2019-04-16T07:12:45.287Z,99083.28
2019-04-16T07:15:16.482Z,99079.20
2019-04-16T07:17:45.541Z,99078.86
2019-04-16T07:20:16.694Z,99083.83
2019-04-16T07:22:47.040Z,99082.30
2019-04-16T07:25:16.619Z,99077.47
2019-04-16T07:28:25.176Z,99071.83
2019-04-16T07:31:06.073Z,99077.05
2019-04-16T07:33:42.970Z,99071.75
2019-04-16T07:36:31.039Z,99071.20
2019-04-16T07:39:31.440Z,99068.20
2019-04-16T07:42:11.749Z,99068.38
2019-04-16T07:45:15.591Z,99068.27
2019-04-16T07:48:09.576Z,99064.59
2019-04-16T07:51:01.795Z,99068.23
2019-04-16T07:53:41.292Z,99059.85
2019-04-16T07:56:15.805Z,99072.41
2019-04-16T07:58:44.879Z,99067.17
2019-04-16T08:01:16.450Z,99067.79
2019-04-16T08:03:45.734Z,99068.50
2019-04-16T08:06:16.174Z,99065.87
2019-04-16T08:08:45.209Z,99057.63
2019-04-16T08:11:14.318Z,99055.45
2019-04-16T08:13:43.923Z,99058.92
2019-04-16T08:16:12.969Z,99053.32
2019-04-16T08:18:51.594Z,99052.98
2019-04-16T08:21:22.541Z,99068.05
2019-04-16T08:24:00.731Z,99064.53
2019-04-16T08:26:31.047Z,99060.88
2019-04-16T08:29:00.080Z,99061.06
2019-04-16T08:31:30.392Z,99068.44
2019-04-16T08:33:59.467Z,99068.19
2019-04-16T08:36:28.672Z,99060.06
2019-04-16T08:38:57.817Z,99063.83
2019-04-16T08:41:26.923Z,99055.17
2019-04-16T08:43:55.960Z,99057.27
2019-04-16T08:46:28.069Z,99051.23
2019-04-16T08:48:55.828Z,99053.24
2019-04-16T08:51:30.723Z,99050.30
2019-04-16T08:53:55.775Z,99048.66
2019-04-16T08:56:24.820Z,99048.41
2019-04-16T08:58:57.324Z,99048.26
2019-04-16T09:01:29.232Z,99045.89
2019-04-16T09:04:01.538Z,99039.09
2019-04-16T09:06:30.683Z,99045.25
2019-04-16T09:09:21.736Z,99048.55
2019-04-16T09:11:56.029Z,99042.59
2019-04-16T09:14:26.649Z,99045.14
2019-04-16T09:17:10.388Z,99040.23
2019-04-16T09:19:41.652Z,99040.55
2019-04-16T09:22:15.954Z,99030.34
2019-04-16T09:25:12.541Z,99032.10
2019-04-16T09:27:42.315Z,99034.41
2019-04-16T09:30:39.332Z,99032.25
2019-04-16T09:33:11.950Z,99038.61
2019-04-16T09:36:05.650Z,99033.58
2019-04-16T09:38:45.590Z,99034.25
2019-04-16T09:41:32.345Z,99032.31
2019-04-16T09:44:02.785Z,99034.85
2019-04-16T09:46:50.604Z,99040.24
2019-04-16T09:49:04.859Z,99034.03
2019-04-16T09:51:34.836Z,99033.42
2019-04-16T09:54:03.908Z,99036.17
2019-04-16T09:56:33.032Z,99030.12
2019-04-16T09:59:21.581Z,99020.00
2019-04-16T10:01:53.798Z,99022.48
2019-04-16T10:04:25.319Z,99021.45
2019-04-16T10:06:54.480Z,99027.94
2019-04-16T10:09:25.785Z,99029.34
2019-04-16T10:11:57.328Z,99033.69
2019-04-16T10:14:28.029Z,99029.04
2019-04-16T10:16:57.294Z,99032.44
2019-04-16T10:19:27.930Z,99026.05
2019-04-16T10:21:56.959Z,99020.03
2019-04-16T10:24:43.547Z,99029.40
2019-04-16T10:27:17.484Z,99036.48
2019-04-16T10:29:47.772Z,99000.00
2019-04-16T10:32:18.702Z,99030.23
2019-04-16T10:34:47.866Z,99033.25
2019-04-16T10:37:17.950Z,99033.03
2019-04-16T10:39:57.052Z,99035.38
2019-04-16T10:42:41.635Z,99027.58
2019-04-16T10:45:29.140Z,99026.64
2019-04-16T10:48:24.828Z,99030.27
2019-04-16T10:51:15.504Z,99032.95
2019-04-16T10:54:08.594Z,99032.50
2019-04-16T10:57:03.446Z,99033.17
2019-04-16T10:59:54.425Z,99032.31
2019-04-16T11:02:35.981Z,99030.98
2019-04-16T11:05:21.798Z,99032.52
2019-04-16T11:07:50.896Z,99026.80
2019-04-16T11:10:19.920Z,99029.02
2019-04-16T11:12:50.282Z,99037.06
2019-04-16T11:15:22.790Z,99030.53
2019-04-16T11:17:54.474Z,99034.55
2019-04-16T11:20:23.561Z,99027.75
2019-04-16T11:22:52.642Z,99022.58
2019-04-16T11:25:22.949Z,99020.28
2019-04-16T11:27:52.015Z,99022.88
2019-04-16T11:30:36.471Z,99016.83
2019-04-16T11:33:05.534Z,99017.29
2019-04-16T11:35:35.940Z,99013.98
2019-04-16T11:38:05.046Z,99023.13
2019-04-16T11:40:34.133Z,99015.13
2019-04-16T11:43:06.873Z,99019.94
2019-04-16T11:45:35.980Z,99019.94
2019-04-16T11:48:05.095Z,99021.89
2019-04-16T11:50:36.375Z,99021.00
2019-04-16T11:53:06.999Z,99019.56
2019-04-16T11:55:36.423Z,99021.40
2019-04-16T11:58:10.362Z,99022.69
2019-04-16T12:00:45.105Z,99021.45
2019-04-16T12:03:36.532Z,99026.55
2019-04-16T12:06:28.437Z,99025.48
2019-04-16T12:09:11.243Z,99026.70
2019-04-16T12:11:49.180Z,99038.26
2019-04-16T12:14:34.674Z,99037.03
2019-04-16T12:17:09.228Z,99040.69
2019-04-16T12:20:09.114Z,99042.06
2019-04-16T12:23:03.298Z,99043.08
2019-04-16T12:25:51.286Z,99045.66
2019-04-16T12:28:43.324Z,99046.46
2019-04-16T12:31:17.682Z,99048.00
2019-04-16T12:33:54.080Z,99054.48
2019-04-16T12:36:40.665Z,99045.11
2019-04-16T12:39:46.786Z,99050.75
2019-04-16T12:42:22.110Z,99055.88
2019-04-16T12:45:09.538Z,99051.38
2019-04-16T12:47:46.057Z,99066.39
2019-04-16T12:50:46.254Z,99057.98
2019-04-16T12:53:31.947Z,99061.89
2019-04-16T12:56:16.299Z,99059.83
2019-04-16T12:59:09.654Z,99060.92
2019-04-16T13:02:00.755Z,99065.87
2019-04-16T13:04:40.938Z,99067.77
2019-04-16T13:07:13.645Z,99071.84
2019-04-16T13:10:00.529Z,99069.23
2019-04-16T13:12:47.196Z,99069.88
2019-04-16T13:15:41.493Z,99069.75
2019-04-16T13:18:44.002Z,99071.36
2019-04-16T13:21:23.655Z,99074.34
2019-04-16T13:24:21.280Z,99076.67
2019-04-16T13:27:12.067Z,99075.68
2019-04-16T13:29:41.190Z,99074.19
2019-04-16T13:32:10.314Z,99082.02
2019-04-16T13:34:39.455Z,99084.64
2019-04-16T13:37:08.582Z,99086.97
2019-04-16T13:40:02.969Z,99088.48
2019-04-16T13:42:32.075Z,99084.13
2019-04-16T13:45:17.927Z,99083.64
2019-04-16T13:47:47.176Z,99093.22
2019-04-16T13:50:23.960Z,99090.14
2019-04-16T13:52:57.278Z,99091.46
2019-04-16T13:55:45.231Z,99091.00
2019-04-16T13:58:35.370Z,99092.91
2019-04-16T14:01:14.453Z,99091.76
2019-04-16T14:03:43.492Z,99093.33
2019-04-16T14:06:14.009Z,99092.64
2019-04-16T14:08:43.047Z,99096.64
2019-04-16T14:11:12.257Z,99095.63
2019-04-16T14:13:42.032Z,99098.70
2019-04-16T14:16:13.531Z,99096.59
2019-04-16T14:18:42.605Z,99095.59
2019-04-16T14:21:11.773Z,99101.04
2019-04-16T14:23:40.885Z,99102.82
2019-04-16T14:26:10.061Z,99098.73
2019-04-16T14:28:51.285Z,99104.59
2019-04-16T14:31:16.343Z,99110.85
2019-04-16T14:33:56.979Z,99112.55
2019-04-16T14:36:27.600Z,99118.88
2019-04-16T14:39:00.218Z,99122.25
2019-04-16T14:41:29.476Z,99121.11
2019-04-16T14:44:08.854Z,99126.07
2019-04-16T14:46:39.672Z,99117.67
2019-04-16T14:49:08.831Z,99117.55
2019-04-16T14:51:37.876Z,99122.25
2019-04-16T14:54:28.301Z,99119.22
2019-04-16T14:56:58.801Z,99121.40
2019-04-16T14:59:58.706Z,99113.64
2019-04-16T15:02:40.876Z,99116.48
2019-04-16T15:05:38.405Z,99114.23
2019-04-16T15:08:32.371Z,99122.02
2019-04-16T15:11:20.498Z,99126.39
2019-04-16T15:13:54.401Z,99119.62
2019-04-16T15:16:58.824Z,99118.81
2019-04-16T15:19:52.703Z,99118.42
2019-04-16T15:22:40.715Z,99117.92
2019-04-16T15:25:20.102Z,99120.34
2019-04-16T15:28:14.035Z,99124.31
2019-04-16T15:31:14.112Z,99120.91
2019-04-16T15:34:10.083Z,99127.77
2019-04-16T15:36:40.213Z,99134.47
2019-04-16T15:39:23.301Z,99143.20
2019-04-16T15:42:09.707Z,99137.14
2019-04-16T15:45:01.038Z,99134.63
2019-04-16T15:48:04.461Z,99132.46
2019-04-16T15:50:44.383Z,99133.33
2019-04-16T15:53:39.618Z,99140.84
2019-04-16T15:56:43.351Z,99127.60
2019-04-16T15:59:37.478Z,99136.83
2019-04-16T16:02:37.645Z,99136.48
2019-04-16T16:05:27.392Z,99131.61
2019-04-16T16:08:35.893Z,99133.81
2019-04-16T16:11:08.194Z,99141.86
2019-04-16T16:13:37.249Z,99142.86
2019-04-16T16:16:09.877Z,99142.70
2019-04-16T16:18:38.789Z,99141.67
2019-04-16T16:21:11.063Z,99139.67
2019-04-16T16:23:40.153Z,99146.36
2019-04-16T16:26:09.199Z,99150.22
2019-04-16T16:28:38.262Z,99151.88
2019-04-16T16:31:07.372Z,99152.56
2019-04-16T16:33:36.558Z,99150.05
2019-04-16T16:36:05.595Z,99160.41
2019-04-16T16:38:34.893Z,99159.91
2019-04-16T16:41:04.108Z,99166.09
2019-04-16T16:43:33.186Z,99165.43
2019-04-16T16:46:30.203Z,99164.59
2019-04-16T16:49:01.413Z,99168.27
2019-04-16T16:51:30.536Z,99170.73
2019-04-16T16:54:08.325Z,99174.16
2019-04-16T16:56:47.030Z,99180.70
2019-04-16T16:59:27.487Z,99178.77
2019-04-16T17:02:28.079Z,99181.45
2019-04-16T17:07:47.329Z,99184.97
2019-04-16T17:10:16.574Z,99189.12
2019-04-16T17:12:46.250Z,99192.90
2019-04-16T17:15:16.421Z,99194.00
2019-04-16T17:17:55.855Z,99201.97
2019-04-16T17:20:26.526Z,99192.69
2019-04-16T17:22:57.887Z,99204.45
2019-04-16T17:25:36.287Z,99200.31
2019-04-16T17:28:01.434Z,99209.07
2019-04-16T17:30:32.701Z,99210.27
2019-04-16T17:33:01.853Z,99217.70
2019-04-16T17:35:32.943Z,99219.80
2019-04-16T17:38:04.429Z,99219.83
2019-04-16T17:40:58.723Z,99224.92
2019-04-16T17:43:59.750Z,99230.36
2019-04-16T17:46:34.269Z,99228.33
2019-04-16T17:49:06.813Z,99228.27
2019-04-16T17:51:43.063Z,99229.67
2019-04-16T17:54:42.466Z,99230.92
2019-04-16T17:57:29.225Z,99234.58
2019-04-16T18:00:04.543Z,99240.78
2019-04-16T18:02:53.478Z,99238.71
2019-04-16T18:05:30.490Z,99240.30
2019-04-16T18:08:32.727Z,99241.55
2019-04-16T18:11:09.821Z,99247.33
2019-04-16T18:13:58.060Z,99258.08
2019-04-16T18:16:38.436Z,99262.86
2019-04-16T18:19:13.696Z,99261.73
2019-04-16T18:22:07.615Z,99270.78
2019-04-16T18:25:00.208Z,99267.20
2019-04-16T18:28:04.636Z,99273.80
2019-04-16T18:30:36.106Z,99277.09
2019-04-16T18:33:38.406Z,99271.42
2019-04-16T18:36:22.661Z,99276.89
2019-04-16T18:39:23.074Z,99283.68
2019-04-16T18:41:56.435Z,99287.67
2019-04-16T18:44:55.106Z,99288.09
2019-04-16T18:48:01.055Z,99290.95
2019-04-16T18:50:23.619Z,99300.48
2019-04-16T18:52:51.964Z,99300.07
2019-04-16T18:55:22.324Z,99300.78
2019-04-16T18:57:53.463Z,99303.45
2019-04-16T19:00:43.059Z,99304.91
2019-04-16T19:03:14.999Z,99311.36
2019-04-16T19:05:45.307Z,99308.97
2019-04-16T19:08:14.736Z,99312.82
2019-04-16T19:10:45.909Z,99312.48
2019-04-16T19:13:19.674Z,99315.25
2019-04-16T19:15:47.834Z,99316.00
2019-04-16T19:18:19.635Z,99318.89
2019-04-16T19:20:51.837Z,99324.66
2019-04-16T19:23:21.347Z,99319.20
2019-04-16T19:25:56.750Z,99323.11
2019-04-16T19:28:26.694Z,99328.44
2019-04-16T19:30:56.060Z,99324.04
2019-04-16T19:33:25.944Z,99325.94
2019-04-16T19:35:56.709Z,99319.15
2019-04-16T19:38:25.872Z,99317.10
2019-04-16T19:40:55.098Z,99318.91
2019-04-16T19:43:24.156Z,99319.77
2019-04-16T19:45:53.709Z,99320.11
2019-04-16T19:48:34.607Z,99319.55
2019-04-16T19:50:55.359Z,99319.81
2019-04-16T19:53:24.381Z,99322.98
2019-04-16T19:55:57.056Z,99324.48
2019-04-16T19:58:27.168Z,99329.12
2019-04-16T20:00:57.384Z,99335.94
2019-04-16T20:03:30.126Z,99336.33
2019-04-16T20:05:59.507Z,99339.84
2019-04-16T20:08:34.401Z,99340.66
2019-04-16T20:10:59.707Z,99338.52
2019-04-16T20:13:29.884Z,99338.38
2019-04-16T20:16:00.807Z,99339.42
2019-04-16T20:18:30.134Z,99338.30
2019-04-16T20:21:01.219Z,99346.97
2019-04-16T20:23:30.212Z,99339.16
2019-04-16T20:26:01.082Z,99338.73
2019-04-16T20:28:35.206Z,99341.86
2019-04-16T20:31:04.859Z,99334.73
2019-04-16T20:33:36.389Z,99336.50
2019-04-16T20:36:06.848Z,99338.64
2019-04-16T20:38:37.270Z,99330.41
2019-04-16T20:41:06.437Z,99333.19
2019-04-16T20:43:37.497Z,99333.32
2019-04-16T20:46:07.995Z,99330.78
2019-04-16T20:48:38.802Z,99333.30
2019-04-16T20:51:07.920Z,99337.46
2019-04-16T20:53:38.047Z,99334.47
2019-04-16T20:56:10.689Z,99335.63
2019-04-16T20:58:39.821Z,99332.96
2019-04-16T21:01:08.946Z,99336.86
2019-04-16T21:03:38.082Z,99336.35
2019-04-16T21:06:09.352Z,99335.75
2019-04-16T21:08:38.010Z,99338.31
2019-04-16T21:11:09.700Z,99339.13
2019-04-16T21:13:38.949Z,99343.89
2019-04-16T21:16:09.398Z,99344.53
2019-04-16T21:18:38.469Z,99335.66
2019-04-16T21:21:08.792Z,99339.19
2019-04-16T21:23:37.922Z,99344.06
2019-04-16T21:26:06.957Z,99335.88
2019-04-16T21:28:40.646Z,99335.13
2019-04-16T21:31:20.655Z,99337.87
2019-04-16T21:34:10.881Z,99336.90
2019-04-16T21:37:10.860Z,99338.59
2019-04-16T21:39:47.129Z,99344.83
2019-04-16T21:42:17.877Z,99343.87
2019-04-16T21:44:48.731Z,99346.92
2019-04-16T21:47:23.048Z,99343.41
2019-04-16T21:49:51.121Z,99348.73
2019-04-16T21:52:23.222Z,99347.05
2019-04-16T21:54:51.106Z,99347.62
2019-04-16T21:57:20.418Z,99351.48
2019-04-16T21:59:50.266Z,99344.33
2019-04-16T22:02:26.039Z,99345.22
2019-04-16T22:04:55.133Z,99347.19
2019-04-16T22:07:25.437Z,99350.70
2019-04-16T22:09:54.652Z,99344.98
2019-04-16T22:12:23.768Z,99346.18
2019-04-16T22:14:54.230Z,99348.84
2019-04-16T22:17:23.755Z,99342.05
2019-04-16T22:20:01.283Z,99346.09
2019-04-16T22:22:27.718Z,99343.21
2019-04-16T22:24:56.496Z,99342.80
2019-04-16T22:27:28.749Z,99343.43
2019-04-16T22:29:58.014Z,99343.73
2019-04-16T22:32:30.380Z,99346.05
2019-04-16T22:34:58.177Z,99344.63
2019-04-16T22:37:27.968Z,99343.87
2019-04-16T22:40:08.669Z,99340.39
2019-04-16T22:42:43.343Z,99348.16
2019-04-16T22:45:33.901Z,99344.44
2019-04-16T22:48:03.474Z,99340.54
2019-04-16T22:50:34.750Z,99344.48
2019-04-16T22:53:03.668Z,99340.39
2019-04-16T22:55:32.699Z,99338.95
2019-04-16T22:58:03.305Z,99343.21
2019-04-16T23:00:35.495Z,99343.21
2019-04-16T23:03:07.018Z,99336.22
2019-04-16T23:05:38.286Z,99340.09
2019-04-16T23:08:11.428Z,99343.27
2019-04-16T23:10:39.359Z,99342.50
2019-04-16T23:13:08.441Z,99339.13
2019-04-16T23:15:38.977Z,99337.19
2019-04-16T23:18:09.370Z,99345.16
2019-04-16T23:20:40.051Z,99342.98
2019-04-16T23:23:09.174Z,99345.96
2019-04-16T23:25:38.625Z,99339.97
2019-04-16T23:28:10.661Z,99337.53
2019-04-16T23:30:38.474Z,99231.53
2019-04-16T23:33:07.688Z,99339.91
2019-04-16T23:35:43.174Z,99338.30
2019-04-16T23:38:07.891Z,99334.34
2019-04-16T23:40:37.023Z,99333.23
2019-04-16T23:43:27.896Z,99335.86
2019-04-16T23:46:14.503Z,99334.75
2019-04-16T23:48:56.763Z,99333.40
2019-04-16T23:51:31.124Z,99331.69
2019-04-16T23:54:07.958Z,99330.75
2019-04-16T23:57:01.060Z,99336.00
2019-04-16T23:59:49.809Z,99336.53
